Time;durP1;ratioP1;P1;durP2;ratioP2;P2;SDS_P1;SDS_P2;PMS_P1;PMS_P2;Temp;Humidity;BMP_temperature;BMP_pressure;BME280_temperature;BME280_humidity;BME280_pressure;Samples;Min_cycle;Max_cycle;Signal;HPM_P1;HPM_P2
2021/01/04 00:04:20;;;;;;;12.18;8.95;;;;;;;;;;4915271;28;20064;31
2021/01/04 00:07:23;;;;;;;12.32;9.23;;;;;;;;;;4112983;34;20131;-60
2021/01/04 00:09:59;;;;;;;11.52;9.20;;;;;;;;;;4107053;34;20119;-61
2021/01/04 00:12:43;;;;;;;12.20;9.75;;;;;;;;;;4129573;34;20186;-61
2021/01/04 00:15:13;;;;;;;12.63;9.18;;;;;;;;;;4124564;34;20123;-61
2021/01/04 00:17:58;;;;;;;12.65;9.35;;;;;;;;;;4123795;34;20294;-60
2021/01/04 00:20:44;;;;;;;11.05;8.77;;;;;;;;;;4112002;34;20233;-61
2021/01/04 00:23:42;;;;;;;11.02;8.98;;;;;;;;;;4135917;34;20175;-61
2021/01/04 00:26:39;;;;;;;13.15;9.25;;;;;;;;;;4110462;34;20569;-61
2021/01/04 00:29:05;;;;;;;11.57;8.90;;;;;;;;;;4100645;34;20154;-61
2021/01/04 00:31:56;;;;;;;11.35;8.93;;;;;;;;;;4135503;34;20114;-61
2021/01/04 00:34:30;;;;;;;11.85;9.40;;;;;;;;;;4130453;34;20179;-61
2021/01/04 00:37:08;;;;;;;10.55;8.93;;;;;;;;;;4125666;34;20207;-60
2021/01/04 00:39:59;;;;;;;10.82;9.10;;;;;;;;;;4137441;34;20103;-61
2021/01/04 00:42:27;;;;;;;11.98;8.80;;;;;;;;;;4137855;34;20448;-61
2021/01/04 00:45:15;;;;;;;11.85;9.07;;;;;;;;;;4137787;34;20115;-61
2021/01/04 00:48:01;;;;;;;11.57;8.30;;;;;;;;;;4137800;34;20113;-61
2021/01/04 00:50:57;;;;;;;11.75;9.07;;;;;;;;;;4125217;34;20207;-61
2021/01/04 00:53:40;;;;;;;12.13;9.15;;;;;;;;;;4126853;34;20597;-61
2021/01/04 00:56:07;;;;;;;10.50;8.85;;;;;;;;;;4137321;34;20130;-61
2021/01/04 00:59:14;;;;;;;11.10;8.38;;;;;;;;;;4137417;34;20080;-61
2021/01/04 01:02:14;;;;;;;10.90;9.05;;;;;;;;;;4083815;35;20136;-60
2021/01/04 01:05:02;;;;;;;11.73;9.20;;;;;;;;;;4113027;34;20464;-61
2021/01/04 01:07:37;;;;;;;10.10;7.87;;;;;;;;;;4149721;34;20099;-62
2021/01/04 01:10:06;;;;;;;10.10;8.15;;;;;;;;;;4148081;34;20196;-62
2021/01/04 01:12:51;;;;;;;10.40;8.52;;;;;;;;;;4137571;34;20126;-62
2021/01/04 01:15:24;;;;;;;12.18;9.05;;;;;;;;;;4124952;34;20212;-62
2021/01/04 01:18:16;;;;;;;10.95;8.18;;;;;;;;;;4125268;34;20590;-60
2021/01/04 01:20:48;;;;;;;10.90;8.40;;;;;;;;;;4124642;34;20453;-60
2021/01/04 01:23:14;;;;;;;10.18;8.45;;;;;;;;;;4114254;34;20535;-59
2021/01/04 01:25:44;;;;;;;10.85;8.27;;;;;;;;;;4136904;34;20216;-60
2021/01/04 01:28:37;;;;;;;11.90;8.57;;;;;;;;;;4135733;34;20203;-60
2021/01/04 01:31:16;;;;;;;10.52;8.57;;;;;;;;;;4124944;34;20099;-59
2021/01/04 01:34:22;;;;;;;12.80;8.57;;;;;;;;;;4137396;34;20463;-60
2021/01/04 01:37:06;;;;;;;10.88;9.02;;;;;;;;;;4137081;34;20110;-60
2021/01/04 01:39:46;;;;;;;11.90;8.85;;;;;;;;;;4136858;34;20514;-60
2021/01/04 01:42:44;;;;;;;11.82;9.15;;;;;;;;;;4136835;34;20112;-60
2021/01/04 01:45:22;;;;;;;12.90;9.15;;;;;;;;;;4137180;34;20115;-60
2021/01/04 01:47:53;;;;;;;9.93;8.68;;;;;;;;;;4125123;34;20099;-60
2021/01/04 01:50:30;;;;;;;12.75;9.18;;;;;;;;;;4124937;34;20437;-60
2021/01/04 01:52:56;;;;;;;12.15;9.02;;;;;;;;;;4113876;34;20116;-60
2021/01/04 01:55:40;;;;;;;11.48;8.63;;;;;;;;;;4136990;34;20123;-61
2021/01/04 01:58:06;;;;;;;12.15;9.43;;;;;;;;;;4114462;34;20542;-60
2021/01/04 02:01:09;;;;;;;11.98;9.10;;;;;;;;;;4137049;34;20116;-60
2021/01/04 02:03:41;;;;;;;12.77;9.07;;;;;;;;;;4137072;34;20534;-60
2021/01/04 02:06:10;;;;;;;13.07;9.52;;;;;;;;;;4130532;34;20111;-60
2021/01/04 02:08:44;;;;;;;13.25;10.43;;;;;;;;;;4150253;34;20600;-62
2021/01/04 02:11:53;;;;;;;13.70;9.98;;;;;;;;;;4128647;34;20200;-60
2021/01/04 02:14:32;;;;;;;13.62;10.82;;;;;;;;;;4105384;34;20115;-61
2021/01/04 02:17:28;;;;;;;13.50;10.63;;;;;;;;;;4114246;34;20127;-60
2021/01/04 02:20:22;;;;;;;13.45;10.27;;;;;;;;;;4136595;34;20188;-60
2021/01/04 02:23:10;;;;;;;11.95;9.73;;;;;;;;;;4136972;34;20123;-60
2021/01/04 02:25:37;;;;;;;13.23;10.98;;;;;;;;;;4136813;34;20645;-61
2021/01/04 02:28:05;;;;;;;13.10;10.85;;;;;;;;;;4113625;34;20200;-60
2021/01/04 02:30:31;;;;;;;14.43;10.95;;;;;;;;;;4136326;34;20159;-60
2021/01/04 02:32:57;;;;;;;14.13;10.32;;;;;;;;;;4124379;34;20201;-60
2021/01/04 02:35:23;;;;;;;12.15;10.63;;;;;;;;;;4124163;34;20207;-60
2021/01/04 02:37:50;;;;;;;14.35;10.85;;;;;;;;;;4124441;34;20131;-60
2021/01/04 02:40:16;;;;;;;14.73;10.90;;;;;;;;;;4113088;34;20111;-60
2021/01/04 02:42:43;;;;;;;17.02;12.18;;;;;;;;;;4136763;34;20143;-60
2021/01/04 02:45:21;;;;;;;12.70;10.15;;;;;;;;;;4136728;34;20111;-61
2021/01/04 02:47:53;;;;;;;15.15;11.43;;;;;;;;;;4125250;34;20124;-60
2021/01/04 02:51:01;;;;;;;14.85;11.65;;;;;;;;;;4136394;34;20126;-61
2021/01/04 02:53:41;;;;;;;13.57;11.18;;;;;;;;;;4131070;34;20140;-60
2021/01/04 02:56:21;;;;;;;13.43;10.88;;;;;;;;;;4113747;34;20116;-61
2021/01/04 02:58:53;;;;;;;12.80;10.18;;;;;;;;;;4123746;34;20200;-61
2021/01/04 03:01:59;;;;;;;13.68;11.45;;;;;;;;;;4136268;34;20149;-60
2021/01/04 03:04:25;;;;;;;14.55;10.93;;;;;;;;;;4121820;34;20232;-61
2021/01/04 03:07:03;;;;;;;11.15;9.93;;;;;;;;;;4134293;34;20139;-61
2021/01/04 03:09:30;;;;;;;11.88;9.35;;;;;;;;;;4150120;34;20130;-60
2021/01/04 03:11:56;;;;;;;11.68;9.75;;;;;;;;;;4136586;34;20106;-61
2021/01/04 03:14:40;;;;;;;12.95;10.05;;;;;;;;;;4135112;34;20563;-61
2021/01/04 03:17:44;;;;;;;12.65;9.75;;;;;;;;;;4135258;34;20122;-61
2021/01/04 03:20:12;;;;;;;12.52;10.35;;;;;;;;;;4127335;34;20225;-60
2021/01/04 03:22:38;;;;;;;12.27;10.43;;;;;;;;;;4123954;34;20193;-61
2021/01/04 03:25:05;;;;;;;13.52;10.80;;;;;;;;;;4112739;34;20134;-60
2021/01/04 03:27:31;;;;;;;15.80;11.95;;;;;;;;;;4123901;34;20111;-60
2021/01/04 03:29:58;;;;;;;11.57;9.43;;;;;;;;;;4123341;34;20123;-61
2021/01/04 03:32:24;;;;;;;11.70;10.05;;;;;;;;;;4136281;34;20111;-60
2021/01/04 03:34:50;;;;;;;12.55;10.05;;;;;;;;;;4135893;34;20147;-61
2021/01/04 03:37:16;;;;;;;11.48;9.05;;;;;;;;;;4136304;34;20207;-61
2021/01/04 03:39:42;;;;;;;13.57;10.00;;;;;;;;;;4135935;34;20223;-60
2021/01/04 03:42:08;;;;;;;13.55;10.38;;;;;;;;;;4136305;34;20110;-61
2021/01/04 03:44:34;;;;;;;12.23;9.70;;;;;;;;;;4135826;34;20127;-60
2021/01/04 03:47:00;;;;;;;13.07;10.38;;;;;;;;;;4124011;34;20210;-61
2021/01/04 03:49:27;;;;;;;11.65;9.68;;;;;;;;;;4135996;34;20123;-61
2021/01/04 03:51:55;;;;;;;13.23;9.45;;;;;;;;;;4136015;34;20102;-60
2021/01/04 03:54:21;;;;;;;12.37;9.60;;;;;;;;;;4136267;34;20092;-60
2021/01/04 03:56:46;;;;;;;12.18;10.05;;;;;;;;;;4123607;34;20134;-61
2021/01/04 03:59:13;;;;;;;12.07;10.10;;;;;;;;;;4135766;34;20570;-61
2021/01/04 04:01:39;;;;;;;12.63;10.85;;;;;;;;;;4135901;34;20104;-60
2021/01/04 04:04:05;;;;;;;14.30;10.52;;;;;;;;;;4136109;34;20128;-61
2021/01/04 04:06:31;;;;;;;13.40;10.27;;;;;;;;;;4133102;34;20206;-62
2021/01/04 04:08:57;;;;;;;15.18;10.57;;;;;;;;;;4151158;34;20585;-62
2021/01/04 04:11:23;;;;;;;14.43;11.45;;;;;;;;;;4140764;34;20123;-62
2021/01/04 04:13:49;;;;;;;13.73;11.12;;;;;;;;;;4137800;34;20115;-61
2021/01/04 04:16:15;;;;;;;12.55;10.25;;;;;;;;;;4137816;34;20501;-61
2021/01/04 04:18:40;;;;;;;14.80;11.12;;;;;;;;;;4137438;34;20548;-60
2021/01/04 04:21:06;;;;;;;13.60;10.77;;;;;;;;;;4137584;34;20107;-61
2021/01/04 04:23:32;;;;;;;13.93;10.95;;;;;;;;;;4137773;34;20195;-61
2021/01/04 04:25:58;;;;;;;13.68;10.93;;;;;;;;;;4137597;34;20556;-61
2021/01/04 04:28:24;;;;;;;15.95;11.73;;;;;;;;;;4137755;34;20547;-61
2021/01/04 04:30:50;;;;;;;14.70;11.45;;;;;;;;;;4137743;34;20187;-61
2021/01/04 04:33:15;;;;;;;14.63;11.80;;;;;;;;;;4137762;34;20116;-61
2021/01/04 04:35:41;;;;;;;13.07;11.38;;;;;;;;;;4137492;34;20100;-60
2021/01/04 04:38:07;;;;;;;17.70;13.40;;;;;;;;;;4137257;34;20204;-60
2021/01/04 04:40:33;;;;;;;17.48;13.00;;;;;;;;;;4137407;34;20123;-61
2021/01/04 04:43:33;;;;;;;16.37;13.23;;;;;;;;;;4137886;34;20108;-61
2021/01/04 04:45:59;;;;;;;16.73;12.77;;;;;;;;;;4134692;34;20500;-61
2021/01/04 04:48:54;;;;;;;15.13;12.60;;;;;;;;;;4125183;34;20239;-60
2021/01/04 04:51:43;;;;;;;17.60;13.27;;;;;;;;;;4119648;34;20591;-60
2021/01/04 04:54:21;;;;;;;17.02;13.60;;;;;;;;;;4117088;34;20190;-60
2021/01/04 04:56:59;;;;;;;19.73;14.75;;;;;;;;;;4137317;34;20115;-60
2021/01/04 04:59:52;;;;;;;20.65;15.82;;;;;;;;;;4125192;34;20096;-59
2021/01/04 05:02:21;;;;;;;23.65;16.23;;;;;;;;;;4125027;34;20111;-59
2021/01/04 05:05:09;;;;;;;18.00;14.13;;;;;;;;;;4124693;34;20095;-59
2021/01/04 05:08:00;;;;;;;22.37;15.20;;;;;;;;;;4124222;34;20122;-61
2021/01/04 05:10:33;;;;;;;19.92;15.95;;;;;;;;;;4127455;34;20610;-62
2021/01/04 05:13:11;;;;;;;22.42;15.27;;;;;;;;;;4125170;34;20124;-61
2021/01/04 05:16:01;;;;;;;22.42;15.85;;;;;;;;;;4137397;34;20119;-61
2021/01/04 05:18:45;;;;;;;21.95;16.23;;;;;;;;;;4124716;34;20134;-62
2021/01/04 05:21:39;;;;;;;23.35;16.48;;;;;;;;;;4137224;34;20107;-61
2021/01/04 05:24:39;;;;;;;22.83;15.80;;;;;;;;;;4137595;34;20162;-62
2021/01/04 05:27:11;;;;;;;23.25;16.87;;;;;;;;;;4124868;34;20539;-61
2021/01/04 05:30:07;;;;;;;23.73;17.00;;;;;;;;;;4137231;34;20142;-62
2021/01/04 05:32:52;;;;;;;23.33;16.95;;;;;;;;;;4137612;34;20215;-62
2021/01/04 05:35:18;;;;;;;22.80;17.15;;;;;;;;;;4135619;34;20115;-61
2021/01/04 05:38:12;;;;;;;23.45;18.15;;;;;;;;;;4137321;34;20103;-62
2021/01/04 05:40:58;;;;;;;23.15;18.70;;;;;;;;;;4136993;34;20099;-63
2021/01/04 05:43:30;;;;;;;22.00;17.17;;;;;;;;;;4124642;34;20118;-62
2021/01/04 05:46:00;;;;;;;23.52;18.20;;;;;;;;;;4137291;34;20202;-61
2021/01/04 05:48:55;;;;;;;22.10;17.48;;;;;;;;;;4113580;34;20241;-62
2021/01/04 05:51:34;;;;;;;22.15;18.00;;;;;;;;;;4124891;34;20107;-61
2021/01/04 05:53:59;;;;;;;25.58;19.17;;;;;;;;;;4137172;34;20167;-60
2021/01/04 05:56:27;;;;;;;22.55;18.10;;;;;;;;;;4124478;34;20196;-61
2021/01/04 05:59:05;;;;;;;27.00;20.98;;;;;;;;;;4136915;34;20124;-62
2021/01/04 06:01:31;;;;;;;24.65;19.42;;;;;;;;;;4136943;34;20118;-62
2021/01/04 06:04:01;;;;;;;24.73;18.83;;;;;;;;;;4124771;34;20138;-62
2021/01/04 06:06:50;;;;;;;26.65;18.83;;;;;;;;;;4144747;34;20107;-61
2021/01/04 06:09:17;;;;;;;27.77;20.92;;;;;;;;;;4148823;34;20607;-61
2021/01/04 06:11:57;;;;;;;25.50;19.73;;;;;;;;;;4146686;34;20127;-61
2021/01/04 06:14:25;;;;;;;27.95;20.65;;;;;;;;;;4148573;34;20683;-61
2021/01/04 06:17:00;;;;;;;26.45;20.15;;;;;;;;;;4138104;34;20103;-62
2021/01/04 06:19:25;;;;;;;28.92;21.52;;;;;;;;;;4136999;34;20138;-62
2021/01/04 06:21:52;;;;;;;29.08;19.35;;;;;;;;;;4112891;34;20662;-63
2021/01/04 06:24:37;;;;;;;25.45;19.73;;;;;;;;;;4124155;34;20119;-63
2021/01/04 06:27:14;;;;;;;25.33;19.75;;;;;;;;;;4123873;34;20171;-63
2021/01/04 06:29:42;;;;;;;27.62;19.52;;;;;;;;;;4124652;34;20094;-64
2021/01/04 06:32:29;;;;;;;25.10;19.00;;;;;;;;;;4136750;34;20126;-64
2021/01/04 06:34:57;;;;;;;24.52;18.92;;;;;;;;;;4131775;34;20547;-62
2021/01/04 06:37:25;;;;;;;27.33;19.45;;;;;;;;;;4137175;34;20166;-62
2021/01/04 06:40:00;;;;;;;23.58;18.02;;;;;;;;;;4134014;34;20222;-62
2021/01/04 06:42:26;;;;;;;30.02;18.75;;;;;;;;;;4124381;34;20313;-63
2021/01/04 06:45:00;;;;;;;24.55;17.98;;;;;;;;;;4131116;34;20573;-63
2021/01/04 06:47:51;;;;;;;22.45;17.17;;;;;;;;;;4134474;34;20484;-64
2021/01/04 06:50:42;;;;;;;23.08;18.55;;;;;;;;;;4135379;34;20699;-63
2021/01/04 06:53:56;;;;;;;22.52;17.37;;;;;;;;;;4149115;34;20175;-63
2021/01/04 06:56:52;;;;;;;24.10;16.85;;;;;;;;;;4123807;34;20132;-63
2021/01/04 06:59:24;;;;;;;23.12;16.45;;;;;;;;;;4147252;34;20479;-61
2021/01/04 07:01:58;;;;;;;23.77;17.42;;;;;;;;;;4149824;34;20190;-57
2021/01/04 07:04:43;;;;;;;20.65;15.10;;;;;;;;;;4150078;34;20111;-55
2021/01/04 07:07:19;;;;;;;23.45;16.17;;;;;;;;;;4160887;34;20507;-59
2021/01/04 07:10:03;;;;;;;18.77;13.93;;;;;;;;;;4151766;34;20130;-59
2021/01/04 07:12:45;;;;;;;21.20;15.40;;;;;;;;;;4163654;34;20103;-59
2021/01/04 07:15:17;;;;;;;20.12;15.23;;;;;;;;;;4146464;34;20556;-60
2021/01/04 07:17:43;;;;;;;19.20;14.68;;;;;;;;;;4131526;34;20110;-58
2021/01/04 07:20:20;;;;;;;17.50;14.07;;;;;;;;;;4148836;34;20119;-59
2021/01/04 07:22:50;;;;;;;18.83;14.13;;;;;;;;;;4137611;34;20186;-59
2021/01/04 07:25:38;;;;;;;18.58;13.68;;;;;;;;;;4136788;34;20526;-59
2021/01/04 07:28:16;;;;;;;16.85;13.57;;;;;;;;;;4149140;34;20113;-59
2021/01/04 07:30:46;;;;;;;17.48;13.00;;;;;;;;;;4149628;34;20099;-60
2021/01/04 07:33:20;;;;;;;17.17;12.82;;;;;;;;;;4148045;34;20139;-59
2021/01/04 07:36:07;;;;;;;16.62;12.32;;;;;;;;;;4136865;34;20134;-59
2021/01/04 07:38:47;;;;;;;17.15;11.95;;;;;;;;;;4136610;34;20546;-57
2021/01/04 07:41:36;;;;;;;15.25;11.93;;;;;;;;;;4137204;34;20115;-58
2021/01/04 07:44:15;;;;;;;17.85;12.65;;;;;;;;;;4149105;34;20222;-59
2021/01/04 07:47:06;;;;;;;17.08;14.00;;;;;;;;;;4136543;34;20164;-57
2021/01/04 07:50:20;;;;;;;15.65;11.90;;;;;;;;;;4127672;34;20691;-58
2021/01/04 07:53:07;;;;;;;16.37;11.23;;;;;;;;;;4144879;34;20216;-58
2021/01/04 07:55:36;;;;;;;12.50;10.25;;;;;;;;;;4149540;34;20110;-58
2021/01/04 07:58:20;;;;;;;13.10;10.65;;;;;;;;;;4149612;34;20103;-57
2021/01/04 08:01:06;;;;;;;15.50;8.50;;;;;;;;;;4149379;34;20125;-58
2021/01/04 08:03:32;;;;;;;;;;;;;;;;;;4134645;34;20548;-57
2021/01/04 08:06:08;;;;;;;8.70;7.72;;;;;;;;;;4142576;34;19990;-58
2021/01/04 08:09:01;;;;;;;9.88;8.88;;;;;;;;;;4163175;34;20516;-58
2021/01/04 08:11:39;;;;;;;10.25;9.15;;;;;;;;;;4151980;34;20115;-59
2021/01/04 08:14:30;;;;;;;10.90;9.77;;;;;;;;;;4140615;34;20138;-59
2021/01/04 08:17:18;;;;;;;9.95;8.95;;;;;;;;;;4130461;34;20103;-58
2021/01/04 08:19:44;;;;;;;10.88;9.30;;;;;;;;;;4141433;34;20123;-59
2021/01/04 08:22:37;;;;;;;10.65;9.50;;;;;;;;;;4126836;34;20144;-59
2021/01/04 08:25:23;;;;;;;12.52;10.40;;;;;;;;;;4144103;34;20091;-57
2021/01/04 08:28:14;;;;;;;10.70;9.33;;;;;;;;;;4140906;34;20144;-57
2021/01/04 08:31:19;;;;;;;10.73;9.70;;;;;;;;;;4144434;34;20125;-58
2021/01/04 08:33:52;;;;;;;9.57;8.57;;;;;;;;;;4124621;34;20123;-58
2021/01/04 08:36:24;;;;;;;9.07;8.20;;;;;;;;;;4129778;34;20114;-58
2021/01/04 08:38:51;;;;;;;8.70;7.90;;;;;;;;;;4141077;34;20138;-57
2021/01/04 08:41:20;;;;;;;8.00;7.30;;;;;;;;;;4135945;34;20095;-58
2021/01/04 08:43:48;;;;;;;7.45;6.75;;;;;;;;;;4141538;34;20147;-59
2021/01/04 08:46:22;;;;;;;8.57;7.05;;;;;;;;;;4118503;34;20465;-58
2021/01/04 08:49:21;;;;;;;7.00;6.28;;;;;;;;;;4142245;34;20139;-58
2021/01/04 08:51:49;;;;;;;6.90;6.20;;;;;;;;;;4134703;34;20110;-57
2021/01/04 08:54:28;;;;;;;7.47;6.78;;;;;;;;;;4144133;34;20587;-57
2021/01/04 08:57:18;;;;;;;8.88;7.97;;;;;;;;;;4133626;34;20546;-59
2021/01/04 08:59:56;;;;;;;6.20;5.60;;;;;;;;;;4149765;34;20130;-58
2021/01/04 09:02:35;;;;;;;7.10;6.40;;;;;;;;;;4151320;34;20213;-58
2021/01/04 09:05:03;;;;;;;7.32;6.65;;;;;;;;;;4151013;34;20115;-59
2021/01/04 09:07:29;;;;;;;6.90;6.30;;;;;;;;;;4164786;34;20121;-56
2021/01/04 09:10:03;;;;;;;8.15;6.10;;;;;;;;;;4142851;34;20220;-58
2021/01/04 09:12:42;;;;;;;7.12;6.47;;;;;;;;;;4151075;34;20487;-58
2021/01/04 09:15:27;;;;;;;7.03;6.32;;;;;;;;;;4138517;34;20456;-56
2021/01/04 09:17:59;;;;;;;6.32;5.72;;;;;;;;;;4140109;34;20619;-61
2021/01/04 09:20:38;;;;;;;7.22;6.25;;;;;;;;;;4150718;34;20187;-58
2021/01/04 09:23:23;;;;;;;6.90;5.85;;;;;;;;;;4138185;34;20092;-57
2021/01/04 09:26:10;;;;;;;;;;;;;;;;;;4127122;34;20135;-57
2021/01/04 09:28:48;;;;;;;7.95;7.15;;;;;;;;;;4129446;34;20393;-56
2021/01/04 09:31:16;;;;;;;10.52;9.02;;;;;;;;;;4150728;34;20114;-57
2021/01/04 09:33:50;;;;;;;8.82;7.20;;;;;;;;;;4150953;34;20194;-57
2021/01/04 09:36:18;;;;;;;7.90;7.10;;;;;;;;;;4150883;34;20112;-57
2021/01/04 09:38:43;;;;;;;8.65;7.75;;;;;;;;;;4126512;34;20131;-57
2021/01/04 09:41:10;;;;;;;8.85;7.95;;;;;;;;;;4136134;34;20668;-58
2021/01/04 09:43:37;;;;;;;9.95;8.95;;;;;;;;;;4114376;34;20171;-59
2021/01/04 09:46:12;;;;;;;8.48;7.62;;;;;;;;;;4149244;34;20198;-57
2021/01/04 09:48:47;;;;;;;9.90;7.65;;;;;;;;;;4136801;34;20193;-57
2021/01/04 09:51:16;;;;;;;7.75;6.95;;;;;;;;;;4149296;34;20118;-57
2021/01/04 09:53:43;;;;;;;7.82;6.90;;;;;;;;;;4126152;34;20135;-57
2021/01/04 09:56:12;;;;;;;9.00;7.32;;;;;;;;;;4138172;34;20126;-58
2021/01/04 09:58:41;;;;;;;7.47;6.37;;;;;;;;;;4138221;34;20103;-57
2021/01/04 10:01:07;;;;;;;8.77;5.85;;;;;;;;;;4150292;34;20130;-57
2021/01/04 10:03:32;;;;;;;6.70;6.10;;;;;;;;;;4149827;34;20588;-61
2021/01/04 10:05:58;;;;;;;9.73;7.78;;;;;;;;;;4149155;34;20665;-58
2021/01/04 10:08:25;;;;;;;6.47;5.87;;;;;;;;;;4145617;34;20134;-59
2021/01/04 10:11:03;;;;;;;7.37;6.57;;;;;;;;;;4136584;34;20165;-59
2021/01/04 10:13:30;;;;;;;6.90;6.12;;;;;;;;;;4150261;34;20600;-59
2021/01/04 10:15:57;;;;;;;7.28;6.60;;;;;;;;;;4149833;34;20122;-58
2021/01/04 10:18:30;;;;;;;7.50;6.20;;;;;;;;;;4136755;34;20095;-57
2021/01/04 10:20:56;;;;;;;7.37;6.68;;;;;;;;;;4137632;34;20149;-57
2021/01/04 10:23:30;;;;;;;7.55;6.75;;;;;;;;;;4137745;34;20528;-60
2021/01/04 10:25:58;;;;;;;7.68;6.87;;;;;;;;;;4137781;34;20224;-56
2021/01/04 10:28:28;;;;;;;8.85;6.72;;;;;;;;;;4138099;34;20325;-56
2021/01/04 10:31:02;;;;;;;7.40;6.25;;;;;;;;;;4126974;34;20099;-57
2021/01/04 10:33:34;;;;;;;8.80;6.95;;;;;;;;;;4136040;34;20107;-57
2021/01/04 10:36:05;;;;;;;7.68;6.80;;;;;;;;;;4147287;34;20114;-59
2021/01/04 10:38:31;;;;;;;8.85;6.72;;;;;;;;;;4148140;34;20119;-59
2021/01/04 10:40:57;;;;;;;9.38;7.55;;;;;;;;;;4135755;34;20150;-57
2021/01/04 10:43:24;;;;;;;11.65;9.63;;;;;;;;;;4148367;34;20127;-58
2021/01/04 10:45:49;;;;;;;12.32;10.65;;;;;;;;;;4148161;34;20471;-59
2021/01/04 10:48:22;;;;;;;12.20;9.88;;;;;;;;;;4149570;34;20142;-59
2021/01/04 10:50:51;;;;;;;12.10;9.60;;;;;;;;;;4150443;34;20127;-58
2021/01/04 10:53:33;;;;;;;11.27;9.38;;;;;;;;;;4150449;34;20106;-58
2021/01/04 10:56:18;;;;;;;11.30;9.07;;;;;;;;;;4150055;34;20126;-59
2021/01/04 10:58:51;;;;;;;15.00;12.30;;;;;;;;;;4137471;34;20110;-58
2021/01/04 11:01:22;;;;;;;16.08;11.88;;;;;;;;;;4137957;34;20102;-58
2021/01/04 11:04:10;;;;;;;14.25;10.70;;;;;;;;;;4150244;34;20098;-58
2021/01/04 11:06:41;;;;;;;14.30;10.98;;;;;;;;;;4146764;34;20115;-60
2021/01/04 11:09:35;;;;;;;12.20;9.70;;;;;;;;;;4163593;34;20146;-60
2021/01/04 11:12:09;;;;;;;13.60;10.02;;;;;;;;;;4162013;34;20126;-61
2021/01/04 11:14:36;;;;;;;17.50;14.68;;;;;;;;;;4163678;34;20234;-60
2021/01/04 11:17:18;;;;;;;15.80;13.43;;;;;;;;;;4163616;34;20165;-59
2021/01/04 11:19:44;;;;;;;13.68;11.55;;;;;;;;;;4151733;34;20102;-58
2021/01/04 11:22:13;;;;;;;12.93;10.63;;;;;;;;;;4163621;34;20109;-58
2021/01/04 11:24:39;;;;;;;13.10;10.68;;;;;;;;;;4163292;34;20529;-59
2021/01/04 11:27:05;;;;;;;12.10;9.48;;;;;;;;;;4162332;34;20099;-60
2021/01/04 11:29:31;;;;;;;13.55;10.10;;;;;;;;;;4163347;34;20118;-59
2021/01/04 11:31:57;;;;;;;12.13;9.45;;;;;;;;;;4163606;34;20142;-60
2021/01/04 11:34:23;;;;;;;12.30;9.05;;;;;;;;;;4163288;34;20534;-59
2021/01/04 11:36:49;;;;;;;12.02;9.13;;;;;;;;;;4163359;34;20142;-59
2021/01/04 11:39:16;;;;;;;14.18;9.70;;;;;;;;;;4150548;34;20126;-60
2021/01/04 11:41:45;;;;;;;11.95;9.10;;;;;;;;;;4163432;34;20098;-60
2021/01/04 11:44:11;;;;;;;11.85;8.90;;;;;;;;;;4163204;34;20119;-58
2021/01/04 11:46:37;;;;;;;13.40;9.63;;;;;;;;;;4163293;34;20119;-63
2021/01/04 11:49:03;;;;;;;12.15;9.60;;;;;;;;;;4163175;34;20110;-57
2021/01/04 11:51:29;;;;;;;11.32;9.10;;;;;;;;;;4163226;34;20208;-58
2021/01/04 11:53:55;;;;;;;12.82;9.55;;;;;;;;;;4161205;34;20122;-63
2021/01/04 11:56:22;;;;;;;12.90;10.05;;;;;;;;;;4148024;34;20471;-58
2021/01/04 11:58:48;;;;;;;15.20;12.37;;;;;;;;;;4149044;34;20118;-61
2021/01/04 12:01:14;;;;;;;15.98;11.43;;;;;;;;;;4135949;34;20123;-59
2021/01/04 12:03:40;;;;;;;16.02;11.55;;;;;;;;;;4135731;34;20540;-60
2021/01/04 12:06:08;;;;;;;14.05;11.55;;;;;;;;;;4147750;34;20111;-58
2021/01/04 12:08:34;;;;;;;13.62;10.52;;;;;;;;;;4152179;34;20201;-57
2021/01/04 12:11:00;;;;;;;15.95;11.77;;;;;;;;;;4137126;34;20191;-58
2021/01/04 12:13:26;;;;;;;13.23;11.00;;;;;;;;;;4135726;34;20210;-57
2021/01/04 12:15:52;;;;;;;14.45;11.35;;;;;;;;;;4135179;34;20113;-57
2021/01/04 12:18:19;;;;;;;13.38;11.82;;;;;;;;;;4135796;34;20124;-57
2021/01/04 12:20:46;;;;;;;13.55;11.10;;;;;;;;;;4135514;34;20120;-60
2021/01/04 12:23:12;;;;;;;11.30;9.63;;;;;;;;;;4143414;34;20279;-59
2021/01/04 12:25:38;;;;;;;14.20;11.90;;;;;;;;;;4139673;34;20233;-59
2021/01/04 12:28:04;;;;;;;11.52;9.05;;;;;;;;;;4137767;34;20320;-59
2021/01/04 12:30:30;;;;;;;12.57;10.30;;;;;;;;;;4134623;34;20331;-59
2021/01/04 12:32:56;;;;;;;10.30;9.05;;;;;;;;;;4151521;34;20223;-58
2021/01/04 12:35:22;;;;;;;10.25;9.10;;;;;;;;;;4150889;34;20112;-58
2021/01/04 12:37:48;;;;;;;12.25;9.85;;;;;;;;;;4151254;34;20113;-58
2021/01/04 12:40:16;;;;;;;11.85;9.75;;;;;;;;;;4150582;34;20117;-59
2021/01/04 12:42:42;;;;;;;11.68;9.07;;;;;;;;;;4151263;34;20099;-59
2021/01/04 12:45:08;;;;;;;12.43;11.18;;;;;;;;;;4150718;34;20103;-59
2021/01/04 12:47:34;;;;;;;12.50;11.05;;;;;;;;;;4138539;34;20110;-59
2021/01/04 12:50:00;;;;;;;11.15;9.98;;;;;;;;;;4150857;34;20095;-58
2021/01/04 12:52:26;;;;;;;10.77;9.40;;;;;;;;;;4151067;34;20123;-62
2021/01/04 12:54:52;;;;;;;9.18;8.25;;;;;;;;;;4138353;34;20605;-59
2021/01/04 12:57:19;;;;;;;8.60;7.70;;;;;;;;;;4151114;34;20218;-59
2021/01/04 12:59:45;;;;;;;8.73;7.82;;;;;;;;;;4138815;34;20546;-58
2021/01/04 13:02:12;;;;;;;10.27;9.27;;;;;;;;;;4151490;34;20123;-58
2021/01/04 13:04:41;;;;;;;9.15;8.25;;;;;;;;;;4151292;34;20455;-58
2021/01/04 13:07:07;;;;;;;10.77;8.70;;;;;;;;;;4162886;34;20118;-57
2021/01/04 13:09:33;;;;;;;9.50;8.50;;;;;;;;;;4164524;34;20630;-59
2021/01/04 13:11:59;;;;;;;8.88;7.40;;;;;;;;;;4164670;34;20122;-59
2021/01/04 13:14:25;;;;;;;9.80;8.13;;;;;;;;;;4164793;34;20209;-59
2021/01/04 13:16:51;;;;;;;8.77;7.45;;;;;;;;;;4164763;34;20125;-58
2021/01/04 13:19:17;;;;;;;7.60;6.82;;;;;;;;;;4163839;34;20150;-59
2021/01/04 13:21:44;;;;;;;7.75;6.95;;;;;;;;;;4164724;34;20220;-59
2021/01/04 13:24:12;;;;;;;8.00;7.20;;;;;;;;;;4164437;34;20138;-58
2021/01/04 13:26:45;;;;;;;7.30;6.60;;;;;;;;;;4164406;34;20122;-59
2021/01/04 13:29:11;;;;;;;8.20;6.50;;;;;;;;;;4152544;34;20447;-59
2021/01/04 13:31:37;;;;;;;7.47;6.78;;;;;;;;;;4164409;34;20523;-58
2021/01/04 13:34:03;;;;;;;6.72;6.12;;;;;;;;;;4164520;34;20496;-58
2021/01/04 13:36:29;;;;;;;7.32;6.55;;;;;;;;;;4163840;34;20086;-58
2021/01/04 13:38:55;;;;;;;5.20;4.70;;;;;;;;;;4164022;34;20229;-57
2021/01/04 13:41:21;;;;;;;4.95;4.15;;;;;;;;;;4164689;34;20141;-58
2021/01/04 13:43:47;;;;;;;4.60;4.20;;;;;;;;;;4164571;34;20535;-59
2021/01/04 13:46:25;;;;;;;4.97;4.57;;;;;;;;;;4164413;34;20795;-58
2021/01/04 13:48:51;;;;;;;4.07;3.72;;;;;;;;;;4164238;34;20145;-60
2021/01/04 13:51:17;;;;;;;4.53;4.12;;;;;;;;;;4164267;34;20115;-58
2021/01/04 13:53:43;;;;;;;5.93;3.62;;;;;;;;;;4164271;34;20202;-58
2021/01/04 13:56:09;;;;;;;3.35;3.05;;;;;;;;;;4164172;34;20148;-59
2021/01/04 13:58:36;;;;;;;4.87;3.55;;;;;;;;;;4163988;34;20182;-58
2021/01/04 14:01:03;;;;;;;3.12;2.92;;;;;;;;;;4164130;34;20208;-61
2021/01/04 14:03:29;;;;;;;3.03;2.83;;;;;;;;;;4164539;34;20231;-58
2021/01/04 14:05:55;;;;;;;3.40;3.10;;;;;;;;;;4163961;34;20118;-58
2021/01/04 14:08:22;;;;;;;2.70;2.50;;;;;;;;;;4164228;34;20106;-58
2021/01/04 14:10:48;;;;;;;2.50;2.30;;;;;;;;;;4164311;34;20095;-61
2021/01/04 14:13:14;;;;;;;2.60;2.40;;;;;;;;;;4164174;34;20177;-59
2021/01/04 14:15:40;;;;;;;3.45;3.15;;;;;;;;;;4164234;34;20129;-58
2021/01/04 14:18:06;;;;;;;5.00;4.50;;;;;;;;;;4164063;34;20214;-59
2021/01/04 14:20:33;;;;;;;3.65;3.35;;;;;;;;;;4164049;34;20100;-58
2021/01/04 14:22:59;;;;;;;2.78;2.58;;;;;;;;;;4163860;34;20103;-58
2021/01/04 14:25:24;;;;;;;2.70;2.50;;;;;;;;;;4163978;34;20114;-58
2021/01/04 14:27:50;;;;;;;2.60;2.28;;;;;;;;;;4164048;34;20186;-58
2021/01/04 14:30:17;;;;;;;2.58;2.37;;;;;;;;;;4164157;34;20123;-58
2021/01/04 14:32:43;;;;;;;2.50;2.30;;;;;;;;;;4151643;34;20439;-58
2021/01/04 14:35:11;;;;;;;2.75;2.55;;;;;;;;;;4163774;34;20117;-59
2021/01/04 14:37:36;;;;;;;2.50;2.30;;;;;;;;;;4163901;34;20184;-60
2021/01/04 14:40:03;;;;;;;2.15;1.95;;;;;;;;;;4163995;34;20247;-59
2021/01/04 14:42:30;;;;;;;2.30;2.10;;;;;;;;;;4163918;34;20118;-62
2021/01/04 14:44:57;;;;;;;2.12;1.92;;;;;;;;;;4163905;34;20142;-60
2021/01/04 14:47:23;;;;;;;1.73;1.62;;;;;;;;;;4164156;34;20213;-58
2021/01/04 14:49:49;;;;;;;2.20;2.00;;;;;;;;;;4163344;34;20758;-58
2021/01/04 14:52:16;;;;;;;2.00;1.90;;;;;;;;;;4163780;34;20091;-60
2021/01/04 14:54:47;;;;;;;1.70;1.60;;;;;;;;;;4163802;34;20576;-59
2021/01/04 14:57:13;;;;;;;1.85;1.70;;;;;;;;;;4151516;34;20097;-58
2021/01/04 14:59:40;;;;;;;1.90;1.80;;;;;;;;;;4163643;34;20119;-58
2021/01/04 15:02:07;;;;;;;3.45;2.75;;;;;;;;;;4163763;34;20141;-62
2021/01/04 15:04:33;;;;;;;1.70;1.60;;;;;;;;;;4151103;34;20238;-56
2021/01/04 15:06:59;;;;;;;1.70;1.60;;;;;;;;;;4153360;34;20514;-59
2021/01/04 15:09:25;;;;;;;2.53;2.00;;;;;;;;;;4141105;34;20215;-57
2021/01/04 15:11:54;;;;;;;1.80;1.70;;;;;;;;;;4136595;34;20468;-55